Culver, Minnesota
Current Conditions -  °F | °C
As of 6:19 PM on Sunday 23 Nov 2014 (Local Time) from KDLH Reporting Station
Haze Haze  
Wind Chill: 31°   Ceiling: 400
Heat Index: 37°   Visibility: 2.5mi
Dew Point: 34°   Wind: 8mph
Humidity: 89%   Direction: 320°NW
Pressure: 29.35"   Gusts: NA
Location:  46.8859°N, 92.4258°W
Report Text: KDLH 240019Z 32007KT 2 1/2SM BR OVC004 03/01 A2935 RMK AO2 T00280011
Loading
Personal Weather Stations






























Interactive Weather Map New forecast layout! Learn more

10-Day Weather Forecast

Advertisements
Track Severe Weather on mobile